Decoded Metar for LETU ( in ) (IATA:) | Meteo·Mobile Aviation Weather
aviador You're here:

LETU Decoded Metar

in
Report Time2019-01-18 11:00:00
UTC Time2019-01-18 11:37:29
Flight Rules vfr VFR
Wind340° at 05 kt
W.Rank340° ranks 6
Current wind is below 340° avg. (11.0)
Visibility9999 m
Phenomena:N/A
Clouds:N/A
Expected CloudBase > 2,000 ft AGL from Temp-Dew spread
CeilingNone
Temp06°C
Dew Point01°C (71% RH)
AAT2.4°C
QNH1020 hPa
Raw Report
METAR LETU 181100Z AUTO 34005KT 300V360 9999 NCD 06/01 Q1020=

Extra information for LETU:More info

Social comments